createdAt,value
2019-05-11T00:01:28.755Z,10.60
2019-05-11T00:03:59.198Z,10.53
2019-05-11T00:06:29.638Z,10.50
2019-05-11T00:09:00.134Z,10.48
2019-05-11T00:11:30.579Z,10.59
2019-05-11T00:14:01.020Z,10.58
2019-05-11T00:16:31.544Z,10.53
2019-05-11T00:19:02.298Z,10.55
2019-05-11T00:21:33.140Z,10.57
2019-05-11T00:24:03.640Z,10.47
2019-05-11T00:26:34.483Z,10.43
2019-05-11T00:29:04.916Z,10.51
2019-05-11T00:31:35.744Z,10.47
2019-05-11T00:34:06.556Z,10.45
2019-05-11T00:36:37.002Z,10.40
2019-05-11T00:39:08.507Z,10.42
2019-05-11T00:41:38.957Z,10.31
2019-05-11T00:44:09.688Z,10.28
2019-05-11T00:46:41.350Z,10.21
2019-05-11T00:49:12.251Z,10.20
2019-05-11T00:51:43.073Z,10.20
2019-05-11T00:54:14.779Z,10.15
2019-05-11T00:56:45.232Z,10.19
2019-05-11T00:59:21.932Z,10.13
2019-05-11T01:01:49.189Z,10.18
2019-05-11T01:04:19.960Z,10.14
2019-05-11T01:06:50.429Z,10.19
2019-05-11T01:09:24.726Z,10.17
2019-05-11T01:11:55.166Z,10.20
2019-05-11T01:14:25.616Z,10.24
2019-05-11T01:16:56.481Z,10.21
2019-05-11T01:19:26.921Z,10.24
2019-05-11T01:21:58.051Z,10.14
2019-05-11T01:24:28.716Z,10.10
2019-05-11T01:26:59.155Z,10.11
2019-05-11T01:29:30.363Z,10.08
2019-05-11T01:32:01.203Z,10.14
2019-05-11T01:34:32.449Z,10.13
2019-05-11T01:37:02.959Z,10.09
2019-05-11T01:39:33.449Z,10.12
2019-05-11T01:42:03.894Z,10.13
2019-05-11T01:44:34.679Z,10.09
2019-05-11T01:47:05.522Z,10.07
2019-05-11T01:49:36.259Z,10.11
2019-05-11T01:52:06.731Z,10.08
2019-05-11T01:54:38.283Z,10.14
2019-05-11T01:57:09.398Z,10.20
2019-05-11T01:59:40.791Z,10.21
2019-05-11T02:02:11.693Z,10.16
2019-05-11T02:04:42.143Z,10.15
2019-05-11T02:07:13.283Z,10.18
2019-05-11T02:09:44.260Z,10.09
2019-05-11T02:12:15.586Z,10.07
2019-05-11T02:14:46.123Z,10.03
2019-05-11T02:17:16.603Z,10.02
2019-05-11T02:19:47.046Z,9.92
2019-05-11T02:22:18.482Z,9.87
2019-05-11T02:24:48.966Z,9.87
2019-05-11T02:27:19.794Z,9.86
2019-05-11T02:29:50.230Z,9.82
2019-05-11T02:32:21.150Z,9.79
2019-05-11T02:34:51.975Z,9.75
2019-05-11T02:37:22.410Z,9.69
2019-05-11T02:39:52.898Z,9.70
2019-05-11T02:42:23.342Z,9.77
2019-05-11T02:44:53.768Z,9.80
2019-05-11T02:47:24.252Z,9.83
2019-05-11T02:49:55.106Z,9.79
2019-05-11T02:52:27.282Z,9.78
2019-05-11T02:54:58.672Z,9.79
2019-05-11T02:57:29.422Z,9.85
2019-05-11T03:00:00.158Z,9.80
2019-05-11T03:02:31.017Z,9.74
2019-05-11T03:05:01.452Z,9.73
2019-05-11T03:07:31.896Z,9.83
2019-05-11T03:10:02.685Z,9.86
2019-05-11T03:12:33.511Z,9.90
2019-05-11T03:15:05.142Z,9.90
2019-05-11T03:17:35.630Z,9.92
2019-05-11T03:20:06.830Z,9.90
2019-05-11T03:22:37.610Z,9.90
2019-05-11T03:25:08.095Z,9.83
2019-05-11T03:27:38.534Z,9.87
2019-05-11T03:30:09.647Z,9.83
2019-05-11T03:32:40.455Z,9.86
2019-05-11T03:35:11.199Z,9.73
2019-05-11T03:37:41.625Z,9.67
2019-05-11T03:40:12.449Z,9.54
2019-05-11T03:42:42.901Z,9.43
2019-05-11T03:45:13.557Z,9.42
2019-05-11T03:47:44.043Z,9.51
2019-05-11T03:50:14.676Z,9.68
2019-05-11T03:52:45.314Z,9.72
2019-05-11T03:55:16.373Z,9.70
2019-05-11T03:57:46.816Z,9.73
2019-05-11T04:00:18.491Z,9.63
2019-05-11T04:02:48.978Z,9.63
2019-05-11T04:05:19.872Z,9.72
2019-05-11T04:07:50.724Z,9.61
2019-05-11T04:10:24.933Z,9.64
2019-05-11T04:12:53.338Z,9.66
2019-05-11T04:15:24.149Z,9.65
2019-05-11T04:17:55.236Z,9.69
2019-05-11T04:20:25.674Z,9.70
2019-05-11T04:22:56.106Z,9.76
2019-05-11T04:25:27.262Z,9.79
2019-05-11T04:27:57.692Z,9.81
2019-05-11T04:30:28.132Z,9.79
2019-05-11T04:32:58.958Z,9.73
2019-05-11T04:35:29.388Z,9.66
2019-05-11T04:38:00.127Z,9.70
2019-05-11T04:40:31.382Z,9.79
2019-05-11T04:43:01.827Z,9.87
2019-05-11T04:45:32.270Z,9.90
2019-05-11T04:48:02.756Z,9.90
2019-05-11T04:50:33.200Z,9.91
2019-05-11T04:53:04.554Z,9.99
2019-05-11T04:55:35.808Z,9.99
2019-05-11T04:58:06.239Z,9.96
2019-05-11T05:00:36.685Z,9.93
2019-05-11T05:03:07.161Z,9.95
2019-05-11T05:05:37.598Z,9.98
2019-05-11T05:08:09.923Z,10.00
2019-05-11T05:10:40.574Z,9.97
2019-05-11T05:13:11.385Z,10.02
2019-05-11T05:15:41.833Z,10.06
2019-05-11T05:18:12.326Z,10.11
2019-05-11T05:20:43.989Z,10.10
2019-05-11T05:23:14.594Z,10.04
2019-05-11T05:25:45.453Z,10.09
2019-05-11T05:28:15.896Z,10.11
2019-05-11T05:30:46.472Z,10.12
2019-05-11T05:33:17.036Z,10.14
2019-05-11T05:35:47.785Z,10.16
2019-05-11T05:38:18.231Z,10.14
2019-05-11T05:40:48.722Z,10.14
2019-05-11T05:43:27.695Z,10.13
2019-05-11T05:45:51.976Z,10.20
2019-05-11T05:48:22.800Z,10.19
2019-05-11T05:50:53.248Z,10.20
2019-05-11T05:53:24.975Z,10.18
2019-05-11T05:55:55.482Z,10.20
2019-05-11T05:58:25.997Z,10.23
2019-05-11T06:00:56.431Z,10.26
2019-05-11T06:03:26.905Z,10.20
2019-05-11T06:05:57.349Z,10.23
2019-05-11T06:08:27.786Z,10.25
2019-05-11T06:10:58.618Z,10.19
2019-05-11T06:13:44.055Z,10.21
2019-05-11T06:16:01.521Z,10.20
2019-05-11T06:18:32.363Z,10.20
2019-05-11T06:21:02.798Z,10.15
2019-05-11T06:23:33.225Z,10.18
2019-05-11T06:26:03.748Z,10.15
2019-05-11T06:28:35.003Z,10.19
2019-05-11T06:31:05.437Z,10.21
2019-05-11T06:33:35.918Z,10.21
2019-05-11T06:36:06.677Z,10.14
2019-05-11T06:38:37.113Z,10.07
2019-05-11T06:41:07.611Z,10.10
2019-05-11T06:43:38.285Z,10.08
2019-05-11T06:46:08.891Z,10.18
2019-05-11T06:48:39.374Z,10.22
2019-05-11T06:51:09.811Z,10.25
2019-05-11T06:53:40.629Z,10.31
2019-05-11T06:56:11.156Z,10.38
2019-05-11T06:58:45.057Z,10.32
2019-05-11T07:01:13.725Z,10.38
2019-05-11T07:03:44.890Z,10.36
2019-05-11T07:06:16.090Z,10.43
2019-05-11T07:08:46.531Z,10.45
2019-05-11T07:11:17.180Z,10.46
2019-05-11T07:13:47.977Z,10.46
2019-05-11T07:16:18.407Z,10.57
2019-05-11T07:18:48.908Z,10.52
2019-05-11T07:21:19.682Z,10.56
2019-05-11T07:23:50.561Z,10.58
2019-05-11T07:26:21.053Z,10.68
2019-05-11T07:28:51.519Z,10.68
2019-05-11T07:31:22.272Z,10.72
2019-05-11T07:33:53.118Z,10.74
2019-05-11T07:36:23.556Z,10.75
2019-05-11T07:38:54.261Z,10.78
2019-05-11T07:41:25.110Z,10.83
2019-05-11T07:43:55.556Z,10.80
2019-05-11T07:46:28.584Z,10.80
2019-05-11T07:48:58.677Z,10.74
2019-05-11T07:51:29.093Z,10.70
2019-05-11T07:53:59.538Z,10.72
2019-05-11T07:56:30.790Z,10.76
2019-05-11T07:59:01.933Z,10.78
2019-05-11T08:01:32.365Z,10.76
2019-05-11T08:04:03.201Z,10.74
2019-05-11T08:06:33.936Z,10.68
2019-05-11T08:09:08.396Z,10.71
2019-05-11T08:11:39.063Z,10.62
2019-05-11T08:14:09.885Z,10.72
2019-05-11T08:16:40.411Z,10.73
2019-05-11T08:19:11.066Z,10.71
2019-05-11T08:21:41.785Z,10.72
2019-05-11T08:24:12.611Z,10.72
2019-05-11T08:26:43.393Z,10.70
2019-05-11T08:29:13.827Z,10.67
2019-05-11T08:31:44.265Z,10.64
2019-05-11T08:34:15.085Z,10.64
2019-05-11T08:36:47.979Z,10.63
2019-05-11T08:39:18.570Z,10.63
2019-05-11T08:41:50.035Z,10.61
2019-05-11T08:44:20.465Z,10.62
2019-05-11T08:46:50.906Z,10.63
2019-05-11T08:49:22.132Z,10.59
2019-05-11T08:51:54.041Z,10.57
2019-05-11T08:54:24.481Z,10.59
2019-05-11T08:56:55.261Z,10.51
2019-05-11T08:59:27.876Z,10.56
2019-05-11T09:01:58.935Z,10.52
2019-05-11T09:04:29.585Z,10.55
2019-05-11T09:07:00.020Z,10.43
2019-05-11T09:09:30.450Z,10.56
2019-05-11T09:12:00.950Z,10.57
2019-05-11T09:14:31.425Z,10.61
2019-05-11T09:17:02.247Z,10.63
2019-05-11T09:19:32.737Z,10.58
2019-05-11T09:22:03.419Z,10.61
2019-05-11T09:24:33.883Z,10.63
2019-05-11T09:27:05.041Z,10.63
2019-05-11T09:29:35.470Z,10.66
2019-05-11T09:32:05.898Z,10.60
2019-05-11T09:34:37.788Z,10.63
2019-05-11T09:37:08.494Z,10.62
2019-05-11T09:39:39.277Z,10.63
2019-05-11T09:42:10.141Z,10.63
2019-05-11T09:44:40.570Z,10.62
2019-05-11T09:47:11.007Z,10.61
2019-05-11T09:49:47.562Z,10.64
2019-05-11T09:52:14.091Z,10.63
2019-05-11T09:54:44.836Z,10.62
2019-05-11T09:57:15.679Z,10.69
2019-05-11T09:59:47.800Z,10.73
2019-05-11T10:02:20.933Z,10.73
2019-05-11T10:04:50.948Z,10.81
2019-05-11T10:07:21.821Z,10.78
2019-05-11T10:09:52.249Z,10.80
2019-05-11T10:12:23.055Z,10.70
2019-05-11T10:14:55.510Z,10.58
2019-05-11T10:17:25.978Z,10.42
2019-05-11T10:19:58.280Z,10.34
2019-05-11T10:22:29.413Z,10.30
2019-05-11T10:25:00.476Z,10.21
2019-05-11T10:27:31.555Z,10.18
2019-05-11T10:30:02.337Z,10.19
2019-05-11T10:32:32.770Z,10.17
2019-05-11T10:35:03.886Z,10.20
2019-05-11T10:37:34.319Z,10.18
2019-05-11T10:40:05.151Z,10.28
2019-05-11T10:42:37.918Z,10.35
2019-05-11T10:45:09.192Z,10.37
2019-05-11T10:47:39.896Z,10.40
2019-05-11T10:50:10.841Z,10.31
2019-05-11T10:52:41.285Z,10.32
2019-05-11T10:55:12.013Z,10.37
2019-05-11T10:57:42.504Z,10.35
2019-05-11T11:00:13.538Z,10.31
2019-05-11T11:02:44.654Z,10.28
2019-05-11T11:05:15.462Z,10.37
2019-05-11T11:07:48.427Z,10.41
2019-05-11T11:10:18.619Z,10.39
2019-05-11T11:12:49.403Z,10.40
2019-05-11T11:15:20.435Z,10.50
2019-05-11T11:17:50.926Z,10.51
2019-05-11T11:20:21.367Z,10.51
2019-05-11T11:22:53.141Z,10.39
2019-05-11T11:25:24.019Z,10.33
2019-05-11T11:27:54.453Z,10.31
2019-05-11T11:30:25.249Z,10.28
2019-05-11T11:32:55.837Z,10.22
2019-05-11T11:35:27.908Z,10.16
2019-05-11T11:37:59.340Z,10.09
2019-05-11T11:40:30.206Z,10.03
2019-05-11T11:43:00.940Z,9.94
2019-05-11T11:45:31.372Z,9.92
2019-05-11T11:48:01.866Z,9.96
2019-05-11T11:50:32.712Z,9.95
2019-05-11T11:53:03.151Z,10.01
2019-05-11T11:55:34.698Z,10.09
2019-05-11T11:58:05.142Z,10.09
2019-05-11T12:00:36.025Z,10.14
2019-05-11T12:03:07.985Z,10.15
2019-05-11T12:05:39.290Z,10.14
2019-05-11T12:08:09.748Z,10.16
2019-05-11T12:10:40.242Z,10.18
2019-05-11T12:13:10.858Z,10.19
2019-05-11T12:15:41.689Z,10.23
2019-05-11T12:18:12.171Z,10.30
2019-05-11T12:20:43.016Z,10.26
2019-05-11T12:23:13.756Z,10.24
2019-05-11T12:25:45.517Z,10.21
2019-05-11T12:28:18.389Z,10.22
2019-05-11T12:30:49.097Z,10.27
2019-05-11T12:33:19.581Z,10.28
2019-05-11T12:35:50.387Z,10.33
2019-05-11T12:38:21.103Z,10.34
2019-05-11T12:40:52.288Z,10.31
2019-05-11T12:43:22.742Z,10.33
2019-05-11T12:45:53.451Z,10.31
2019-05-11T12:48:23.947Z,10.31
2019-05-11T12:50:56.169Z,10.39
2019-05-11T12:53:27.949Z,10.48
2019-05-11T12:55:59.026Z,10.51
2019-05-11T12:58:29.499Z,10.46
2019-05-11T13:00:59.925Z,10.54
2019-05-11T13:03:30.777Z,10.58
2019-05-11T13:06:01.241Z,10.61
2019-05-11T13:08:31.677Z,10.58
2019-05-11T13:11:02.444Z,10.53
2019-05-11T13:13:32.881Z,10.56
2019-05-11T13:16:03.321Z,10.59
2019-05-11T13:18:34.162Z,10.58
2019-05-11T13:21:04.604Z,10.54
2019-05-11T13:23:35.515Z,10.57
2019-05-11T13:26:08.557Z,10.57
2019-05-11T13:28:38.587Z,10.47
2019-05-11T13:31:09.036Z,10.37
2019-05-11T13:33:39.925Z,10.42
2019-05-11T13:36:10.363Z,10.38
2019-05-11T13:38:41.158Z,10.45
2019-05-11T13:41:12.018Z,10.45
2019-05-11T13:43:42.750Z,10.44
2019-05-11T13:46:13.494Z,10.49
2019-05-11T13:48:44.743Z,10.45
2019-05-11T13:51:15.174Z,10.35
2019-05-11T13:53:48.266Z,10.36
2019-05-11T13:56:18.683Z,10.46
2019-05-11T13:58:49.273Z,10.45
2019-05-11T14:01:19.725Z,10.43
2019-05-11T14:03:50.318Z,10.44
2019-05-11T14:06:20.769Z,10.41
2019-05-11T14:08:51.959Z,10.42
2019-05-11T14:11:22.680Z,10.35
2019-05-11T14:13:53.160Z,10.36
2019-05-11T14:16:23.630Z,10.43
2019-05-11T14:18:54.485Z,10.41
2019-05-11T14:21:24.932Z,10.45
2019-05-11T14:23:55.546Z,10.50
2019-05-11T14:26:28.052Z,10.53
2019-05-11T14:28:58.465Z,10.51
2019-05-11T14:31:29.108Z,10.56
2019-05-11T14:33:59.687Z,10.54
2019-05-11T14:36:30.802Z,10.59
2019-05-11T14:39:01.608Z,10.69
2019-05-11T14:41:32.128Z,10.70
2019-05-11T14:44:02.894Z,10.72
2019-05-11T14:46:33.773Z,10.73
2019-05-11T14:49:04.263Z,10.80
2019-05-11T14:51:34.737Z,10.85
2019-05-11T14:54:07.874Z,10.82
2019-05-11T14:56:38.153Z,10.88
2019-05-11T14:59:09.202Z,10.93
2019-05-11T15:01:40.044Z,10.94
2019-05-11T15:04:10.902Z,10.98
2019-05-11T15:06:42.084Z,10.98
2019-05-11T15:09:12.530Z,10.93
2019-05-11T15:11:43.044Z,10.93
2019-05-11T15:14:13.480Z,10.91
2019-05-11T15:16:43.907Z,10.95
2019-05-11T15:19:14.423Z,10.90
2019-05-11T15:21:45.029Z,10.93
2019-05-11T15:24:15.463Z,10.95
2019-05-11T15:26:49.220Z,10.92
2019-05-11T15:29:19.654Z,10.93
2019-05-11T15:31:50.109Z,10.91
2019-05-11T15:34:20.676Z,10.91
2019-05-11T15:36:51.292Z,10.90
2019-05-11T15:39:22.084Z,10.90
2019-05-11T15:42:06.473Z,10.87
2019-05-11T15:44:25.594Z,10.87
2019-05-11T15:46:58.286Z,10.97
2019-05-11T15:49:29.008Z,10.97
2019-05-11T15:51:59.848Z,10.98
2019-05-11T15:54:30.355Z,10.93
2019-05-11T15:57:00.801Z,10.95
2019-05-11T15:59:31.252Z,11.01
2019-05-11T16:02:01.734Z,10.97
2019-05-11T16:04:32.174Z,11.00
2019-05-11T16:07:03.041Z,11.02
2019-05-11T16:09:33.533Z,11.03
2019-05-11T16:12:04.397Z,11.06
2019-05-11T16:14:34.825Z,11.03
2019-05-11T16:17:05.683Z,11.04
2019-05-11T16:19:40.941Z,11.08
2019-05-11T16:22:10.161Z,11.05
2019-05-11T16:24:40.889Z,11.09
2019-05-11T16:27:11.887Z,11.08
2019-05-11T16:29:42.750Z,11.09
2019-05-11T16:32:14.473Z,11.17
2019-05-11T16:34:44.896Z,11.17
2019-05-11T16:37:18.236Z,11.13
2019-05-11T16:39:49.515Z,11.11
2019-05-11T16:42:20.016Z,11.08
2019-05-11T16:44:50.888Z,11.11
2019-05-11T16:47:21.336Z,11.19
2019-05-11T16:49:52.063Z,11.11
2019-05-11T16:52:23.012Z,11.19
2019-05-11T16:54:53.733Z,11.20
2019-05-11T16:57:24.175Z,11.27
2019-05-11T16:59:54.671Z,11.33
2019-05-11T17:02:27.373Z,11.37
2019-05-11T17:04:58.791Z,11.44
2019-05-11T17:07:29.995Z,11.46
2019-05-11T17:10:00.615Z,11.48
2019-05-11T17:12:31.553Z,11.51
2019-05-11T17:15:02.798Z,11.45
2019-05-11T17:17:33.239Z,11.45
2019-05-11T17:20:04.030Z,11.46
2019-05-11T17:22:35.682Z,11.44
2019-05-11T17:25:08.549Z,11.39
2019-05-11T17:27:39.373Z,11.38
2019-05-11T17:30:10.019Z,11.32
2019-05-11T17:32:40.454Z,11.30
2019-05-11T17:35:11.622Z,11.17
2019-05-11T17:37:42.057Z,11.13
2019-05-11T17:40:12.512Z,11.13
2019-05-11T17:42:43.358Z,11.25
2019-05-11T17:45:13.945Z,11.17
2019-05-11T17:47:44.793Z,11.15
2019-05-11T17:50:16.143Z,11.25
2019-05-11T17:52:47.978Z,11.25
2019-05-11T17:55:18.843Z,11.45
2019-05-11T17:57:53.418Z,11.45
2019-05-11T18:00:22.815Z,11.47
2019-05-11T18:02:53.614Z,11.39
2019-05-11T18:05:24.110Z,11.35
2019-05-11T18:07:54.598Z,11.42
2019-05-11T18:10:25.054Z,11.45
2019-05-11T18:12:57.695Z,11.42
2019-05-11T18:15:27.784Z,11.47
2019-05-11T18:17:59.108Z,11.40
2019-05-11T18:20:31.275Z,11.41
2019-05-11T18:23:02.164Z,11.56
2019-05-11T18:25:34.324Z,11.57
2019-05-11T18:28:06.279Z,11.42
2019-05-11T18:30:38.754Z,11.34
2019-05-11T18:33:09.222Z,11.21
2019-05-11T18:35:39.833Z,11.12
2019-05-11T18:38:10.471Z,11.03
2019-05-11T18:40:41.878Z,10.93
2019-05-11T18:43:12.384Z,10.98
2019-05-11T18:45:48.868Z,11.06
2019-05-11T18:48:19.940Z,10.95
2019-05-11T18:50:50.395Z,10.96
2019-05-11T18:53:21.244Z,10.90
2019-05-11T18:55:52.204Z,10.90
2019-05-11T18:58:22.672Z,10.91
2019-05-11T19:00:53.502Z,10.85
2019-05-11T19:03:24.423Z,10.71
2019-05-11T19:05:57.582Z,10.61
2019-05-11T19:08:27.998Z,10.59
2019-05-11T19:11:00.084Z,10.55
2019-05-11T19:13:30.831Z,10.55
2019-05-11T19:16:01.590Z,10.56
2019-05-11T19:18:32.282Z,10.51
2019-05-11T19:21:03.029Z,10.53
2019-05-11T19:23:33.510Z,10.41
2019-05-11T19:26:04.918Z,10.43
2019-05-11T19:28:35.895Z,10.37
2019-05-11T19:31:08.369Z,10.40
2019-05-11T19:33:38.921Z,10.29
2019-05-11T19:36:09.670Z,10.36
2019-05-11T19:38:40.405Z,10.30
2019-05-11T19:41:12.088Z,10.14
2019-05-11T19:43:42.918Z,9.99
2019-05-11T19:46:13.694Z,10.00
2019-05-11T19:48:44.926Z,10.00
2019-05-11T19:51:15.375Z,9.97
2019-05-11T19:53:45.839Z,9.93
2019-05-11T19:56:18.273Z,9.88
2019-05-11T19:58:49.043Z,9.75
2019-05-11T20:01:19.513Z,9.67
2019-05-11T20:03:52.565Z,9.58
2019-05-11T20:06:28.093Z,9.59
2019-05-11T20:08:59.160Z,9.48
2019-05-11T20:11:30.034Z,9.44
2019-05-11T20:14:00.829Z,9.57
2019-05-11T20:16:31.308Z,9.62
2019-05-11T20:19:01.759Z,9.79
2019-05-11T20:21:32.688Z,9.80
2019-05-11T20:24:03.835Z,9.85
2019-05-11T20:26:34.572Z,9.76
2019-05-11T20:29:05.040Z,9.70
2019-05-11T20:31:36.307Z,9.72
2019-05-11T20:34:06.755Z,9.64
2019-05-11T20:36:37.478Z,9.62
2019-05-11T20:39:08.454Z,9.62
2019-05-11T20:41:41.081Z,9.56
2019-05-11T20:44:11.528Z,9.55
2019-05-11T20:46:43.229Z,9.55
2019-05-11T20:49:15.132Z,9.49
2019-05-11T20:51:48.396Z,9.46
2019-05-11T20:54:19.089Z,9.44
2019-05-11T20:56:50.880Z,9.38
2019-05-11T20:59:21.800Z,9.34
2019-05-11T21:01:52.274Z,9.31
2019-05-11T21:04:22.684Z,9.26
2019-05-11T21:06:53.500Z,9.16
2019-05-11T21:09:23.939Z,9.22
2019-05-11T21:11:54.385Z,9.21
2019-05-11T21:14:25.220Z,9.15
2019-05-11T21:16:58.310Z,9.15
2019-05-11T21:19:28.462Z,9.16
2019-05-11T21:21:59.201Z,9.08
2019-05-11T21:24:29.616Z,9.10
2019-05-11T21:27:00.045Z,9.07
2019-05-11T21:29:31.472Z,9.04
2019-05-11T21:32:02.191Z,8.93
2019-05-11T21:34:33.238Z,8.93
2019-05-11T21:37:03.723Z,8.80
2019-05-11T21:39:34.537Z,8.80
2019-05-11T21:42:04.992Z,8.79
2019-05-11T21:44:35.495Z,8.73
2019-05-11T21:47:07.724Z,8.74
2019-05-11T21:49:38.244Z,8.74
2019-05-11T21:52:08.817Z,8.68
2019-05-11T21:54:39.256Z,8.64
2019-05-11T21:57:09.693Z,8.62
2019-05-11T21:59:40.223Z,8.57
2019-05-11T22:02:11.027Z,8.56
2019-05-11T22:04:41.778Z,8.52
2019-05-11T22:07:14.240Z,8.56
2019-05-11T22:09:44.674Z,8.50
2019-05-11T22:12:18.586Z,8.45
2019-05-11T22:14:48.902Z,8.44
2019-05-11T22:17:19.519Z,8.37
2019-05-11T22:19:49.949Z,8.33
2019-05-11T22:22:25.092Z,8.36
2019-05-11T22:24:52.957Z,8.26
2019-05-11T22:27:24.102Z,8.27
2019-05-11T22:29:54.896Z,8.26
2019-05-11T22:32:25.781Z,8.31
2019-05-11T22:34:58.239Z,8.22
2019-05-11T22:37:28.852Z,8.20
2019-05-11T22:39:59.277Z,8.21
2019-05-11T22:42:29.709Z,8.07
2019-05-11T22:45:00.343Z,7.96
2019-05-11T22:47:30.838Z,8.02
2019-05-11T22:50:01.916Z,7.90
2019-05-11T22:52:36.568Z,7.89
2019-05-11T22:55:05.389Z,7.84
2019-05-11T22:57:37.910Z,7.77
2019-05-11T23:00:09.737Z,7.71
2019-05-11T23:02:40.221Z,7.65
2019-05-11T23:05:11.147Z,7.66
2019-05-11T23:07:41.920Z,7.72
2019-05-11T23:10:12.759Z,7.69
2019-05-11T23:12:43.192Z,7.65
2019-05-11T23:15:14.096Z,7.62
2019-05-11T23:17:44.973Z,7.60
2019-05-11T23:20:15.913Z,7.55
2019-05-11T23:22:58.118Z,7.56
2019-05-11T23:25:21.374Z,7.50
2019-05-11T23:27:52.186Z,7.48
2019-05-11T23:30:22.758Z,7.47
2019-05-11T23:32:53.956Z,7.37
2019-05-11T23:35:24.701Z,7.36
2019-05-11T23:37:57.992Z,7.27
2019-05-11T23:40:28.525Z,7.32
2019-05-11T23:42:59.078Z,7.32
2019-05-11T23:45:29.562Z,7.29
2019-05-11T23:48:00.458Z,7.22
2019-05-11T23:50:31.677Z,7.24
2019-05-11T23:53:06.458Z,7.23
2019-05-11T23:55:34.686Z,7.19
2019-05-11T23:58:05.456Z,7.21
